Race Results for
Utah City Crits Midvale
Midvale, UT
(Event Information)
View By:
Criterium on 07/03/2012

Note: Ranking points are NOT upgrade points. An explanation of ranking points can be found here.


Men - Cat3/4/5

 Place Points NameCity, StateTime USAC #BibTeam
1300.66Jason GOODFELLOW   Salt Lake City, UT00:40:56.30 222317  324 Canyon Bicycles
2314.44Ben TOWERY   Clinton, UT00:41:08.00 276103  348 Chick-fil-a/Excelerator Sports
3328.22Mark MILLER   Draper, UT00:41:08.10 24435  369 Canyon Bicycles
4342.00Zack BUTTERFIELD   South Jordan, UT00:41:08.20 181987  355 Canyon Bicycles-Draper
5355.78Isaac KUNZ (1 - Cat4)   Holladay, UT00:41:08.80 350366  344 Mi Duole
6369.56Guy VAN NATTA   Clovis, CA00:41:09.20 218823  349 Momentum Racing LLC - CA
7UNKNOWN RIDER   00:41:10.50  248 -------
8397.12Nolan FINLAYSON   Riverton, UT00:41:10.60 291403  376 Team Dialogue
9410.90Tim AKERS   Salt Lake City, UT00:41:10.70 276173  371 Wear On Earth
10424.68Sam TROP   Draper, UT00:41:10.80 263601  334 Revolution Cafe Rio
11438.46Kirk CAMPBELL (2 - Cat4)   Salt Lake City, UT00:41:11.10 299152  356 
12452.24William PURDY (3 - Cat4)   West Valley, UT00:41:11.40 222648  337 VeloCity Cyclists/Canyon Bicyc
13466.02Michael MACCI (4 - Cat4)   Salt Lake City, UT00:41:12.30 129769  377 Team Plan7
14479.80Grayson MILLARD (5 - Cat4)   Salt Lake City, UT00:41:14.80 376089  364 FFKR Architects Racing
15493.58Everett BISSONETTE (6 - Cat4)   Murrieta, CA00:41:15.40 287434  341 CA Pools /CFS Mortgage
16507.36Cj KOZLOWSKI   Gillette, WY00:41:16.20 307652  326 Team Tumbleweeds
17521.14Tim HANSON (7 - Cat4)   South Jordan, UT00:41:16.90 81268  359 
18534.92Jared BREWER   Taylorsville00:41:17.20 370140  338 FFKR
19548.70Edward KILBOURN (8 - Cat4)   Salt Lake City, UT00:41:18.20 357519  360 RMCC Cyclesmith
20562.48John SHIRLEY (9 - Cat4)   Saltlakecity, UT00:41:20.20 307437  347 SkullCandy/ Think Architecture
21576.26Thomas FOWLER   Salt Lake City, UT00:41:22.00 334296  323 Canyon Bicycles
22590.04Michael YOUNT   Salt Lake City, UT00:41:24.80 256224  361 Canyon Bicycles -- Draper
DNPKyle ANDERSON (Cat4)   Sandy, UT00:00:00.00 365998  321 Revolution Cafe Rio
DNPEric THOMPSON   Midvale, UT00:00:00.00 322070  333 FFKR Architects Racing Team/Ve
DNPSanchez ERNEST   00:00:00.00  336 CA Pools /CFS Mortgage
DNPNathan ASAY   Cedar City, UT00:00:00.00 361637  340 Southern Utah University
DNPMichael CONTI (Cat4)   Park City, UT00:00:00.00 266003  342 
DNPMoses FERNANDEZ (Cat4)   Sandy, UT00:00:00.00 317312  343 Canyon Bicycles
DNPJeffrey MITCHELL (Cat4)   Las Vegas, NV00:00:00.00 298516  345 Cal Pools/CFS Mortgage
DNPBrad SHELTON (Cat4)   Murray, UT00:00:00.00 294013  346 contender
DNPSurba TUCKER (Cat4)   Milwaukee Wisconsin00:00:00.00 346974  350 Revolution Cafe Rio
DNPJarom WARD (Cat5)   Salt Lake City00:00:00.00 377806  351 Revolution Cafe Rio
DNPStephen WEAVER (Cat5)   Pleasant Grove Utah00:00:00.00 380959  352 SaltCycle
DNPJaron CROCKER (Cat5)   Kearns Ut00:00:00.00 308989  357 512 Racing
DNPSamuel HALES (Cat4)   Provo, UT00:00:00.00 304670  358 
DNPRyan CRABBE   Tucker, GA00:00:00.00 242442  362 RMCC/Cyclesmith
DNPJohn THOMAS   Park City, UT00:00:00.00 199388  365 COTBR
DNPGuy ROUNDY   West Jordan, UT00:00:00.00 51897  370 CA Pools /CFS Mortgage
DNPDaniel BARLOW (Cat5)   Cottonwood Heights, UT00:00:00.00 269881  372 Revolution Cafe Rio
DNPMike OBLAD (Cat4)   Taylorsville, UT00:00:00.00 26520  373 Team Dialogue
DNPShad ROUNDY (Cat4)   Kearns, UT00:00:00.00 53754  374 CA Pools / CFS Mortgage
DNPAl TAKEMORI (Cat4)   Lehi, UT00:00:00.00 276940  375 Team Dialogue
DNPJason DURAN (Cat4)   South Jordan, UT00:00:00.00 110954  378 Infinite Cycles
DNFDrew THOMPSON (Cat4)   Berkeley, CA00:00:00.00 368394  379 University of California-Berke
DNFSteve COONS (Cat4)   Salt Lake City, UT00:00:00.00 367550  380 
DNFWarren SMITH   00:00:00.00  381 
DNFBrian MADSEN   Eagle Mountain00:00:00.00 342608  382 FFKR Architects

Men - Cat1/2/3/4 - Master - 40-99

 Place Points NameCity, StateTime USAC #BibTeam
1344.52Andrew LOVE (1 - Cat3)   Salt Lake City, UT00:46:35.80 56255  144 RMCC
2374.39Guy VAN NATTA (2 - Cat3)   Clovis, CA00:46:36.60 218823  161 Momentum Racing LLC - CA
3404.26Charles PALMER (3 - Cat3)   Herriman, UT00:46:37.30 156926  156 FFKR Architects Racing
4434.13Jeff CLAWSON (1 - Cat2)   Sandy, UT00:46:39.20 103430  160 Canyon Bicycles-Draper
5464.00Ken LOUDER (4 - Cat3)   Salt Lake City, UT00:46:46.20 179491  143 FFKR Architects Racing
6493.87Eric YELSA (5 - Cat3)   Taylorsville, UT00:47:03.20 46090  154 The Contender
7523.74Eric SCHRAMM (6 - Cat3)   Salt Lake Cty, UT00:47:09.10 50631  162 
DNSGuy ROUNDY (Cat3)   West Jordan, UT00:00:00.00 51897  153 CA Pools /CFS Mortgage
DNSRick BLACK (Cat3)   Alpine, UT00:00:00.00 210661  155 Team plan 7
DNSDirk COWLEY   Salt Lake City, UT00:00:00.00 7974  148 Velosport Racing
DNFLorin RONNOW (Cat3)   Salt Lake City, UT00:00:00.00 264904  152 FFKR Architects Racing

Men - Cat1/2/3

 Place Points NameCity, StateTime USAC #BibTeam
1205.12Mike WILCOX   Salt Lake City, UT20:59:30.50 78544  420 FFKR Architects Racing
2222.01Cody HAROLDSEN   Salt Lake City, UT20:59:30.90 230640  409 Ski Utah Marketstar
3238.90Connor O'LEARY   Salt Lake City, UT20:59:31.20 209217  434 Bontrager/LIVESTRONG
4255.79Jacob STOCKING   Salt Lake City, UT20:59:31.70 222652  417 revolution cafe rio
5272.68Aaron OLSEN   Woodscross, UT20:59:31.90 181440  414 FFKR Architects Racing
6289.57Nate ARNIM (1 - Cat2)   Salt Lake City, UT20:59:32.00 230024  401 FFKR Architects Racing
7306.46Jason CASTOR (2 - Cat2)   Salt Lake City, UT20:59:32.00 161560  405 Contender Bicycles
8323.35Chad VANSOLKEMA (1 - Cat3)   Salt Lake City, UT20:59:32.50 278138  419 BICYCLE CENTER
9340.24Mark DETERLINE (3 - Cat2)   Salt Lake City, UT20:59:32.50 43613  406 Team Plan7
10357.13Steve ALBRECHT   Lehi, UT20:59:32.80 279040  400 Revolution Cafe Rio
11374.02Eric FLYNN (4 - Cat2)   Salt Lake City, UT20:59:32.80 85427  407 FFKR Architects Racing
12390.91Patrick RAMIREZ (5 - Cat2)   Salt Lake, UT20:59:33.20 156874  442 CONTENDER BICYCLES
13407.80Rodney SMITH   Salt Lake City, UT20:59:33.90 52471  433 CONTENDER BICYCLES
14424.69Mitch MCBETH (6 - Cat2)   Salt Lake City, UT20:59:34.30 23158  449 Team Plan7
15441.58Hunter HUFFMAN (7 - Cat2)   Park City, UT20:59:35.10 338664  444 Canyon Bicycles
16458.47Mark FLIS (8 - Cat2)   Salt Lake City, UT20:59:35.80 282287  432 Revolution Cafe Rio
17475.36Kevin VAN LOON (9 - Cat2)   North Salt Lake , UT20:59:38.80 184083  436 Bicycle Center
18Scott MARTIN   21:00:05.00  445 Kuhl
DNSPeter van Dyk   Northvale, NJ00:00:00.00 365080  418 Jamis/Sutter Home
DNSCortlan BROWN   Bountiful, UT00:00:00.00 262949  431 Ski Utah Marketstar
DNFCody ROHOVIT (Cat2)   Slc, UT00:00:00.00 277951  415 FFKR Architects Racing
DNFMike SOHM   Salt Lake City00:00:00.00 219095  416 Ski Utah Marketstar
DNFKevin WILLBANKS (Cat2)   Salt Lake City, UT00:00:00.00 226315  429 Dogfish Racing Team
DNFClint CARTER (Cat2)   Salt Lake City, UT00:00:00.00 220916  446 FFKR Architects Racing
DNFEric MARTIN (Cat2)   St. George, UT00:00:00.00 266132  447 Canyon Bicycles-Draper
DNFDirk COWLEY   Salt Lake City, UT00:00:00.00 7974  448 Velosport Racing
DNFGavin STORIE (Cat3)   Layton, UT00:00:00.00 172267  450 The Contender Club

Report missing or incorrect license numbers

Volkswagen
USACDFBonk BreakerShimanoSpySierra Nevada
UCI USA Cycling is the official governing body for all disciplines of competitive cycling in the United States. The 501c3, membership-based organization aims both to achieve sustained success in international cycling competition and to grow competitive cycling in America while delivering an exceptional customer experience.
View Children's Online Privacy Protection Policy
US Olympic Committee